createdAt,value
2022-11-02T00:00:28.048Z,101372.25
2022-11-02T00:02:55.992Z,101362.22
2022-11-02T00:05:24.856Z,101357.88
2022-11-02T00:07:53.619Z,101359.75
2022-11-02T00:10:22.530Z,101353.53
2022-11-02T00:12:52.719Z,101355.41
2022-11-02T00:15:20.513Z,101359.19
2022-11-02T00:17:51.549Z,101354.59
2022-11-02T00:20:20.674Z,101358.34
2022-11-02T00:22:50.985Z,101361.06
2022-11-02T00:25:22.656Z,101365.66
2022-11-02T00:27:51.676Z,101365.91
2022-11-02T00:30:19.366Z,101353.19
2022-11-02T00:32:47.070Z,101362.13
2022-11-02T00:35:14.732Z,101363.28
2022-11-02T00:37:42.420Z,101373.31
2022-11-02T00:40:11.297Z,101366.25
2022-11-02T00:42:39.037Z,101372.16
2022-11-02T00:45:09.707Z,101368.84
2022-11-02T00:47:37.355Z,101372.63
2022-11-02T00:50:06.065Z,101370.16
2022-11-02T00:52:33.696Z,101370.59
2022-11-02T00:55:01.379Z,101378.63
2022-11-02T00:57:29.051Z,101382.66
2022-11-02T00:59:56.823Z,101379.13
2022-11-02T01:02:25.939Z,101381.25
2022-11-02T01:04:53.744Z,101385.59
2022-11-02T01:07:21.391Z,101388.56
2022-11-02T01:09:49.304Z,101393.19
2022-11-02T01:12:16.958Z,101378.81
2022-11-02T01:14:45.200Z,101402.38
2022-11-02T01:17:12.827Z,101395.31
2022-11-02T01:19:42.070Z,101391.78
2022-11-02T01:22:09.966Z,101399.09
2022-11-02T01:24:37.748Z,101400.94
2022-11-02T01:27:05.376Z,101407.41
2022-11-02T01:29:32.999Z,101407.66
2022-11-02T01:32:00.640Z,101407.06
2022-11-02T01:34:28.283Z,101397.31
2022-11-02T01:36:57.247Z,101400.84
2022-11-02T01:39:24.938Z,101405.44
2022-11-02T01:41:53.675Z,101411.09
2022-11-02T01:44:30.180Z,101399.44
2022-11-02T01:47:02.806Z,101411.31
2022-11-02T01:49:33.831Z,101418.41
2022-11-02T01:52:08.116Z,101410.75
2022-11-02T01:54:41.013Z,101413.69
2022-11-02T01:57:11.801Z,101416.41
2022-11-02T01:59:45.342Z,101415.59
2022-11-02T02:02:18.481Z,101421.25
2022-11-02T02:04:50.808Z,101416.06
2022-11-02T02:07:20.802Z,101420.66
2022-11-02T02:09:51.251Z,101424.44
2022-11-02T02:12:21.033Z,101428.78
2022-11-02T02:14:48.847Z,101423.59
2022-11-02T02:17:29.649Z,101431.97
2022-11-02T02:20:03.421Z,101422.19
2022-11-02T02:23:14.655Z,101434.09
2022-11-02T02:26:03.376Z,101435.97
2022-11-02T02:28:41.679Z,101428.91
2022-11-02T02:31:16.922Z,101436.22
2022-11-02T02:33:49.134Z,101444.59
2022-11-02T02:36:24.743Z,101435.63
2022-11-02T02:39:01.128Z,101431.28
2022-11-02T02:41:37.943Z,101427.75
2022-11-02T02:44:07.693Z,101427.75
2022-11-02T02:46:42.857Z,101439.66
2022-11-02T02:49:15.510Z,101444.22
2022-11-02T02:51:45.419Z,101434.69
2022-11-02T02:54:16.140Z,101430.09
2022-11-02T02:56:48.960Z,101436.09
2022-11-02T02:59:24.333Z,101440.94
2022-11-02T03:01:52.104Z,101440.94
2022-11-02T03:04:19.828Z,101438.72
2022-11-02T03:06:52.334Z,101448.72
2022-11-02T03:09:28.267Z,101446.25
2022-11-02T03:12:10.049Z,101444.72
2022-11-02T03:14:54.313Z,101443.06
2022-11-02T03:17:31.032Z,101455.19
2022-11-02T03:20:04.704Z,101449.78
2022-11-02T03:22:36.024Z,101457.31
2022-11-02T03:25:14.088Z,101460.03
2022-11-02T03:27:51.377Z,101470.28
2022-11-02T03:30:23.805Z,101466.16
2022-11-02T03:32:57.998Z,101472.88
2022-11-02T03:35:34.538Z,101475.34
2022-11-02T03:38:06.853Z,101478.03
2022-11-02T03:40:39.604Z,101477.22
2022-11-02T03:43:08.448Z,101476.63
2022-11-02T03:45:41.316Z,101487.22
2022-11-02T03:48:12.880Z,101484.16
2022-11-02T03:50:47.323Z,101489.56
2022-11-02T03:53:22.407Z,101488.75
2022-11-02T03:55:55.190Z,101496.28
2022-11-02T03:58:22.818Z,101496.28
2022-11-02T04:00:55.629Z,101498.16
2022-11-02T04:03:25.296Z,101502.53
2022-11-02T04:05:53.031Z,101504.41
2022-11-02T04:08:26.172Z,101505.69
2022-11-02T04:11:12.156Z,101523.94
2022-11-02T04:13:56.613Z,101526.31
2022-11-02T04:16:28.203Z,101521.13
2022-11-02T04:19:14.307Z,101522.19
2022-11-02T04:22:02.189Z,101535.13
2022-11-02T04:24:47.268Z,101539.72
2022-11-02T04:27:19.611Z,101545.13
2022-11-02T04:29:48.601Z,101548.06
2022-11-02T04:32:37.762Z,101550.78
2022-11-02T04:35:05.149Z,101547.13
2022-11-02T04:37:50.686Z,101560.19
2022-11-02T04:40:18.601Z,101559.13
2022-11-02T04:42:47.613Z,101561.84
2022-11-02T04:45:15.382Z,101557.72
2022-11-02T04:47:44.433Z,101581.03
2022-11-02T04:50:12.684Z,101582.06
2022-11-02T04:52:40.341Z,101584.91
2022-11-02T04:55:09.105Z,101590.78
2022-11-02T04:57:36.814Z,101597.50
2022-11-02T05:00:07.314Z,101612.91
2022-11-02T05:02:35.048Z,101610.44
2022-11-02T05:05:06.116Z,101611.50
2022-11-02T05:07:33.902Z,101615.03
2022-11-02T05:10:01.518Z,101609.84
2022-11-02T05:12:29.476Z,101623.38
2022-11-02T05:14:57.207Z,101613.59
2022-11-02T05:17:25.119Z,101628.19
2022-11-02T05:19:52.723Z,101624.06
2022-11-02T05:22:22.394Z,101633.00
2022-11-02T05:24:50.049Z,101636.78
2022-11-02T05:27:17.725Z,101642.41
2022-11-02T05:29:45.345Z,101653.25
2022-11-02T05:32:12.988Z,101650.75
2022-11-02T05:34:40.624Z,101656.41
2022-11-02T05:37:08.299Z,101663.69
2022-11-02T05:39:37.269Z,101666.63
2022-11-02T05:42:05.235Z,101673.94
2022-11-02T05:44:32.905Z,101680.41
2022-11-02T05:47:00.550Z,101673.34
2022-11-02T05:49:28.202Z,101683.34
2022-11-02T05:51:56.073Z,101692.50
2022-11-02T05:54:24.213Z,101686.25
2022-11-02T05:56:53.422Z,101685.44
2022-11-02T05:59:21.017Z,101706.25
2022-11-02T06:01:48.708Z,101705.22
2022-11-02T06:04:16.695Z,101713.56
2022-11-02T06:06:44.418Z,101708.13
2022-11-02T06:09:12.324Z,101712.94
2022-11-02T06:11:40.079Z,101724.84
2022-11-02T06:14:09.213Z,101723.47
2022-11-02T06:16:36.871Z,101730.63
2022-11-02T06:19:04.575Z,101724.75
2022-11-02T06:21:32.373Z,101724.84
2022-11-02T06:24:00.208Z,101727.53
2022-11-02T06:26:27.918Z,101742.34
2022-11-02T06:28:55.579Z,101732.09
2022-11-02T06:31:25.067Z,101751.81
2022-11-02T06:33:52.730Z,101757.91
2022-11-02T06:36:20.424Z,101762.09
2022-11-02T06:38:48.047Z,101782.09
2022-11-02T06:41:15.747Z,101771.44
2022-11-02T06:43:43.437Z,101775.03
2022-11-02T06:46:11.096Z,101780.06
2022-11-02T06:48:40.140Z,101791.94
2022-11-02T06:51:07.823Z,101798.19
2022-11-02T06:53:35.561Z,101807.34
2022-11-02T06:56:03.336Z,101814.66
2022-11-02T06:58:31.773Z,101824.88
2022-11-02T07:01:01.340Z,101835.69
2022-11-02T07:03:29.461Z,101837.78
2022-11-02T07:05:58.627Z,101834.03
2022-11-02T07:08:27.229Z,101843.81
2022-11-02T07:10:55.337Z,101845.28
2022-11-02T07:13:23.371Z,101859.50
2022-11-02T07:15:53.224Z,101867.72
2022-11-02T07:18:24.416Z,101875.09
2022-11-02T07:20:52.125Z,101893.31
2022-11-02T07:23:23.864Z,101889.41
2022-11-02T07:25:51.873Z,101899.63
2022-11-02T07:28:20.052Z,101891.13
2022-11-02T07:30:48.291Z,101891.13
2022-11-02T07:33:16.007Z,101897.59
2022-11-02T07:35:43.788Z,101894.88
2022-11-02T07:38:12.002Z,101894.59
2022-11-02T07:40:41.291Z,101904.59
2022-11-02T07:43:09.532Z,101900.66
2022-11-02T07:45:37.329Z,101907.34
2022-11-02T07:48:05.169Z,101904.88
2022-11-02T07:50:32.900Z,101916.75
2022-11-02T07:53:00.677Z,101913.59
2022-11-02T07:55:30.687Z,101923.03
2022-11-02T07:58:01.271Z,101926.00
2022-11-02T08:00:30.474Z,101927.81
2022-11-02T08:02:59.433Z,101929.53
2022-11-02T08:05:29.017Z,101931.69
2022-11-02T08:07:59.985Z,101934.00
2022-11-02T08:10:28.698Z,101930.47
2022-11-02T08:12:57.464Z,101930.69
2022-11-02T08:15:27.189Z,101934.25
2022-11-02T08:18:02.122Z,101934.00
2022-11-02T08:20:30.385Z,101941.31
2022-11-02T08:22:58.681Z,101950.47
2022-11-02T08:25:26.876Z,101955.03
2022-11-02T08:27:57.332Z,101962.13
2022-11-02T08:30:26.792Z,101953.78
2022-11-02T08:32:57.150Z,101959.78
2022-11-02T08:35:25.123Z,101959.19
2022-11-02T08:37:56.285Z,101958.81
2022-11-02T08:40:24.592Z,101961.91
2022-11-02T08:42:56.970Z,101950.88
2022-11-02T08:45:26.144Z,101961.50
2022-11-02T08:47:53.876Z,101958.81
2022-11-02T08:50:21.715Z,101972.50
2022-11-02T08:52:49.465Z,101978.56
2022-11-02T08:55:17.245Z,101973.34
2022-11-02T08:57:48.309Z,101977.91
2022-11-02T09:00:16.604Z,101979.56
2022-11-02T09:02:45.752Z,101978.56
2022-11-02T09:05:13.396Z,101975.03
2022-11-02T09:07:41.162Z,101984.16
2022-11-02T09:10:09.536Z,101980.00
2022-11-02T09:12:37.241Z,101980.63
2022-11-02T09:15:05.450Z,101983.34
2022-11-02T09:17:33.110Z,101985.22
2022-11-02T09:20:02.138Z,101987.09
2022-11-02T09:22:29.826Z,101985.22
2022-11-02T09:24:57.562Z,101986.63
2022-11-02T09:27:25.254Z,101987.28
2022-11-02T09:29:52.918Z,101991.66
2022-11-02T09:32:20.552Z,101982.72
2022-11-02T09:34:50.445Z,101996.56
2022-11-02T09:37:19.582Z,101996.41
2022-11-02T09:39:47.247Z,101991.66
2022-11-02T09:42:21.409Z,101997.28
2022-11-02T09:44:55.100Z,102005.16
2022-11-02T09:50:18.463Z,101995.06
2022-11-02T09:52:54.222Z,102002.19
2022-11-02T09:55:28.279Z,102005.50
2022-11-02T09:58:02.679Z,102006.16
2022-11-02T10:00:36.480Z,102005.56
2022-11-02T10:03:18.789Z,102009.94
2022-11-02T10:05:52.758Z,102009.88
2022-11-02T10:08:31.478Z,102019.03
2022-11-02T10:11:08.535Z,102017.38
2022-11-02T10:13:40.584Z,102026.31
2022-11-02T10:16:14.135Z,102030.88
2022-11-02T10:18:43.705Z,102028.28
2022-11-02T10:21:14.778Z,102035.00
2022-11-02T10:23:50.945Z,102040.97
2022-11-02T10:26:20.576Z,102042.03
2022-11-02T10:28:51.440Z,102039.94
2022-11-02T10:31:26.636Z,102043.28
2022-11-02T10:33:58.123Z,102042.47
2022-11-02T10:36:42.538Z,102037.59
2022-11-02T10:39:28.055Z,102037.44
2022-11-02T10:42:07.398Z,102042.03
2022-11-02T10:44:51.160Z,102046.16
2022-11-02T10:47:21.572Z,102038.88
2022-11-02T10:50:18.863Z,102050.53
2022-11-02T10:52:47.647Z,102034.69
2022-11-02T10:55:27.873Z,102044.25
2022-11-02T10:57:59.864Z,102049.66
2022-11-02T11:00:30.838Z,102055.91
2022-11-02T11:03:06.911Z,102060.25
2022-11-02T11:05:37.043Z,102065.44
2022-11-02T11:08:06.654Z,102057.94
2022-11-02T11:10:39.209Z,102056.06
2022-11-02T11:15:55.951Z,102053.34
2022-11-02T11:21:11.792Z,102056.22
2022-11-02T11:23:39.482Z,102052.03
2022-11-02T11:26:26.831Z,102060.47
2022-11-02T11:29:00.127Z,102066.34
2022-11-02T11:31:27.883Z,102054.91
2022-11-02T11:33:57.654Z,102053.03
2022-11-02T11:36:28.858Z,102041.59
2022-11-02T11:39:00.052Z,102047.31
2022-11-02T11:41:30.052Z,102031.06
2022-11-02T11:43:58.402Z,102024.84
2022-11-02T11:46:40.321Z,102022.97
2022-11-02T11:49:35.826Z,102030.25
2022-11-02T11:52:20.772Z,102034.38
2022-11-02T11:54:54.908Z,102033.56
2022-11-02T11:57:29.359Z,102031.47
2022-11-02T11:59:59.758Z,102047.72
2022-11-02T12:02:30.247Z,102044.78
2022-11-02T12:05:14.234Z,102036.44
2022-11-02T12:08:00.687Z,102039.97
2022-11-02T12:10:43.847Z,102042.44
2022-11-02T12:13:28.194Z,102032.44
2022-11-02T12:16:11.414Z,102017.56
2022-11-02T12:18:52.784Z,102016.13
2022-11-02T12:21:38.128Z,102018.31
2022-11-02T12:24:30.347Z,102013.50
2022-11-02T12:27:12.813Z,102001.63
2022-11-02T12:30:04.111Z,101999.22
2022-11-02T12:32:50.045Z,102003.66
2022-11-02T12:35:40.274Z,101998.59
2022-11-02T12:38:24.698Z,101991.53
2022-11-02T12:41:03.062Z,101995.22
2022-11-02T12:43:39.771Z,101988.69
2022-11-02T12:46:13.931Z,101983.94
2022-11-02T12:48:50.738Z,101987.91
2022-11-02T12:51:22.583Z,101990.84
2022-11-02T12:53:53.288Z,101987.09
2022-11-02T12:56:23.805Z,101991.47
2022-11-02T12:58:52.720Z,101988.75
2022-11-02T13:01:28.652Z,101979.56
2022-11-02T13:04:01.586Z,101986.03
2022-11-02T13:06:35.177Z,101981.22
2022-11-02T13:09:08.724Z,101966.03
2022-11-02T13:11:41.261Z,101966.41
2022-11-02T13:14:15.600Z,101969.09
2022-11-02T13:16:50.052Z,101967.22
2022-11-02T13:19:21.506Z,101960.97
2022-11-02T13:21:54.752Z,101963.69
2022-11-02T13:24:28.046Z,101964.31
2022-11-02T13:27:14.148Z,101955.34
2022-11-02T13:29:51.152Z,101957.00
2022-11-02T13:32:32.620Z,101942.63
2022-11-02T13:35:05.974Z,101947.34
2022-11-02T13:37:38.332Z,101948.16
2022-11-02T13:40:14.061Z,101947.13
2022-11-02T13:43:02.972Z,101949.38
2022-11-02T13:45:59.775Z,101948.91
2022-11-02T13:48:41.410Z,101942.44
2022-11-02T13:51:19.641Z,101945.75
2022-11-02T13:53:54.218Z,101937.59
2022-11-02T13:56:25.431Z,101939.25
2022-11-02T13:59:00.728Z,101937.38
2022-11-02T14:01:32.295Z,101931.97
2022-11-02T14:04:05.700Z,101923.00
2022-11-02T14:06:45.057Z,101926.53
2022-11-02T14:09:24.873Z,101921.72
2022-11-02T14:11:52.745Z,101924.47
2022-11-02T14:14:23.822Z,101917.38
2022-11-02T14:17:14.602Z,101916.09
2022-11-02T14:20:04.303Z,101913.72
2022-11-02T14:22:32.976Z,101915.69
2022-11-02T14:25:24.589Z,101925.09
2022-11-02T14:27:55.782Z,101916.84
2022-11-02T14:30:44.005Z,101914.94
2022-11-02T14:33:25.645Z,101911.53
2022-11-02T14:35:59.435Z,101913.31
2022-11-02T14:38:47.397Z,101911.78
2022-11-02T14:41:36.665Z,101905.16
2022-11-02T14:44:21.813Z,101907.31
2022-11-02T14:46:56.859Z,101908.38
2022-11-02T14:49:28.175Z,101904.00
2022-11-02T14:52:04.281Z,101902.22
2022-11-02T14:54:35.466Z,101908.59
2022-11-02T14:57:06.857Z,101898.09
2022-11-02T14:59:38.746Z,101895.59
2022-11-02T15:02:14.306Z,101894.41
2022-11-02T15:04:50.240Z,101899.00
2022-11-02T15:07:23.441Z,101896.44
2022-11-02T15:09:59.148Z,101885.59
2022-11-02T15:12:34.132Z,101880.53
2022-11-02T15:15:06.777Z,101883.34
2022-11-02T15:18:01.155Z,101874.97
2022-11-02T15:20:33.002Z,101866.72
2022-11-02T15:23:29.927Z,101865.06
2022-11-02T15:26:00.875Z,101856.56
2022-11-02T15:28:33.681Z,101858.44
2022-11-02T15:31:05.109Z,101850.53
2022-11-02T15:33:38.044Z,101855.97
2022-11-02T15:36:09.798Z,101855.19
2022-11-02T15:38:40.440Z,101846.38
2022-11-02T15:41:21.371Z,101854.25
2022-11-02T15:44:22.014Z,101852.47
2022-11-02T15:47:00.698Z,101849.84
2022-11-02T15:49:46.082Z,101850.31
2022-11-02T15:52:24.377Z,101854.09
2022-11-02T15:55:05.613Z,101852.88
2022-11-02T15:57:42.378Z,101844.75
2022-11-02T16:00:18.179Z,101849.59
2022-11-02T16:02:48.569Z,101848.75
2022-11-02T16:05:23.503Z,101845.22
2022-11-02T16:10:43.184Z,101837.56
2022-11-02T16:13:17.211Z,101841.09
2022-11-02T16:15:46.148Z,101840.25
2022-11-02T16:18:24.896Z,101838.84
2022-11-02T16:20:54.071Z,101838.25
2022-11-02T16:23:25.441Z,101831.19
2022-11-02T16:25:57.269Z,101827.50
2022-11-02T16:28:26.404Z,101834.13
2022-11-02T16:31:01.821Z,101834.13
2022-11-02T16:33:32.742Z,101828.00
2022-11-02T16:36:01.496Z,101831.88
2022-11-02T16:38:29.788Z,101839.19
2022-11-02T16:40:59.160Z,101829.44
2022-11-02T16:43:27.834Z,101835.63
2022-11-02T16:46:03.688Z,101829.66
2022-11-02T16:48:33.711Z,101830.47
2022-11-02T16:51:04.478Z,101832.59
2022-11-02T16:53:34.011Z,101820.91
2022-11-02T16:56:27.547Z,101820.06
2022-11-02T16:59:01.268Z,101815.94
2022-11-02T17:01:35.145Z,101816.41
2022-11-02T17:04:14.092Z,101826.19
2022-11-02T17:06:42.911Z,101825.34
2022-11-02T17:09:22.784Z,101822.41
2022-11-02T17:11:52.935Z,101829.50
2022-11-02T17:14:22.389Z,101829.50
2022-11-02T17:17:01.756Z,101821.59
2022-11-02T17:19:46.739Z,101828.91
2022-11-02T17:22:23.764Z,101825.59
2022-11-02T17:25:04.317Z,101814.75
2022-11-02T17:27:39.127Z,101819.34
2022-11-02T17:30:45.573Z,101825.59
2022-11-02T17:33:28.549Z,101819.34
2022-11-02T17:35:58.294Z,101824.75
2022-11-02T17:38:28.222Z,101823.94
2022-11-02T17:40:56.628Z,101822.28
2022-11-02T17:43:24.792Z,101816.03
2022-11-02T17:48:43.357Z,101823.56
2022-11-02T17:51:12.362Z,101826.06
2022-11-02T17:53:40.533Z,101815.94
2022-11-02T17:56:10.410Z,101815.47
2022-11-02T17:58:40.179Z,101818.00
2022-11-02T18:01:08.226Z,101816.34
2022-11-02T18:03:35.991Z,101813.81
2022-11-02T18:06:03.733Z,101815.94
2022-11-02T18:08:51.474Z,101818.06
2022-11-02T18:11:24.899Z,101805.78
2022-11-02T18:13:55.209Z,101792.72
2022-11-02T18:16:22.954Z,101797.31
2022-11-02T18:18:50.699Z,101790.69
2022-11-02T18:21:18.404Z,101787.16
2022-11-02T18:23:46.084Z,101790.94
2022-11-02T18:26:13.851Z,101779.50
2022-11-02T18:28:41.827Z,101780.31
2022-11-02T18:31:10.869Z,101779.25
2022-11-02T18:33:38.607Z,101781.97
2022-11-02T18:36:08.543Z,101773.38
2022-11-02T18:38:36.588Z,101774.22
2022-11-02T18:41:25.991Z,101772.56
2022-11-02T18:43:59.095Z,101763.59
2022-11-02T18:46:32.875Z,101760.78
2022-11-02T18:49:01.028Z,101765.94
2022-11-02T18:51:29.282Z,101758.06
2022-11-02T18:53:58.045Z,101763.72
2022-11-02T18:56:26.243Z,101755.56
2022-11-02T18:58:55.172Z,101743.91
2022-11-02T19:01:24.985Z,101752.63
2022-11-02T19:03:56.125Z,101747.81
2022-11-02T19:06:43.085Z,101744.28
2022-11-02T19:09:23.473Z,101747.00
2022-11-02T19:11:56.574Z,101739.94
2022-11-02T19:14:25.334Z,101734.50
2022-11-02T19:16:53.092Z,101733.09
2022-11-02T19:19:22.445Z,101712.47
2022-11-02T19:21:50.195Z,101719.78
2022-11-02T19:24:18.086Z,101710.81
2022-11-02T19:26:45.867Z,101708.34
2022-11-02T19:29:13.818Z,101702.34
2022-11-02T19:31:41.581Z,101693.38
2022-11-02T19:34:09.347Z,101688.19
2022-11-02T19:36:38.743Z,101679.25
2022-11-02T19:39:09.660Z,101677.59
2022-11-02T19:41:38.936Z,101672.66
2022-11-02T19:44:06.747Z,101672.66
2022-11-02T19:46:34.667Z,101659.34
2022-11-02T19:49:02.637Z,101660.41
2022-11-02T19:51:31.723Z,101655.22
2022-11-02T19:54:02.881Z,101653.56
2022-11-02T19:56:33.532Z,101647.31
2022-11-02T19:59:01.954Z,101640.50
2022-11-02T20:01:31.577Z,101647.78
2022-11-02T20:04:00.348Z,101645.31
2022-11-02T20:06:29.903Z,101640.13
2022-11-02T20:09:01.623Z,101647.44
2022-11-02T20:11:29.799Z,101634.94
2022-11-02T20:13:59.006Z,101629.78
2022-11-02T20:16:27.428Z,101628.13
2022-11-02T20:18:56.202Z,101622.72
2022-11-02T20:21:31.021Z,101620.00
2022-11-02T20:24:01.734Z,101615.06
2022-11-02T20:26:31.161Z,101623.88
2022-11-02T20:29:00.906Z,101620.81
2022-11-02T20:31:30.244Z,101628.13
2022-11-02T20:33:57.937Z,101629.19
2022-11-02T20:36:26.800Z,101626.69
2022-11-02T20:38:56.264Z,101622.56
2022-11-02T20:41:26.363Z,101618.22
2022-11-02T20:43:55.836Z,101615.50
2022-11-02T20:46:42.240Z,101624.47
2022-11-02T20:49:21.763Z,101616.81
2022-11-02T20:51:58.630Z,101617.63
2022-11-02T20:54:29.492Z,101603.50
2022-11-02T20:56:58.792Z,101608.09
2022-11-02T20:59:26.547Z,101604.56
2022-11-02T21:01:54.432Z,101598.53
2022-11-02T21:04:22.187Z,101591.25
2022-11-02T21:06:50.554Z,101593.13
2022-11-02T21:09:18.410Z,101592.53
2022-11-02T21:12:03.449Z,101587.13
2022-11-02T21:14:32.537Z,101586.31
2022-11-02T21:17:02.043Z,101581.13
2022-11-02T21:19:30.036Z,101580.31
2022-11-02T21:21:59.979Z,101579.47
2022-11-02T21:24:28.279Z,101570.53
2022-11-02T21:26:56.025Z,101572.41
2022-11-02T21:29:24.084Z,101573.47
2022-11-02T21:31:53.201Z,101578.06
2022-11-02T21:34:20.917Z,101577.00
2022-11-02T21:36:49.042Z,101577.00
2022-11-02T21:39:16.763Z,101574.06
2022-11-02T21:41:44.552Z,101576.19
2022-11-02T21:44:12.619Z,101569.13
2022-11-02T21:46:40.382Z,101563.09
2022-11-02T21:49:09.531Z,101566.63
2022-11-02T21:51:38.489Z,101555.22
2022-11-02T21:54:06.330Z,101562.28
2022-11-02T21:56:35.891Z,101563.56
2022-11-02T21:59:05.275Z,101561.69
2022-11-02T22:01:47.261Z,101557.34
2022-11-02T22:04:19.493Z,101550.28
2022-11-02T22:06:47.334Z,101551.09
2022-11-02T22:09:15.301Z,101546.75
2022-11-02T22:11:44.739Z,101554.63
2022-11-02T22:14:12.225Z,101535.91
2022-11-02T22:16:41.475Z,101538.63
2022-11-02T22:19:10.695Z,101532.63
2022-11-02T22:21:42.493Z,101525.31
2022-11-02T22:24:11.174Z,101522.84
2022-11-02T22:26:39.823Z,101524.50
2022-11-02T22:29:09.438Z,101518.28
2022-11-02T22:31:39.495Z,101513.91
2022-11-02T22:34:09.092Z,101508.50
2022-11-02T22:36:37.873Z,101504.97
2022-11-02T22:39:07.707Z,101497.91
2022-11-02T22:41:37.246Z,101494.38
2022-11-02T22:44:06.637Z,101477.31
2022-11-02T22:46:36.359Z,101479.78
2022-11-02T22:49:05.135Z,101466.75
2022-11-02T22:51:35.806Z,101481.09
2022-11-02T22:54:05.188Z,101476.50
2022-11-02T22:56:34.661Z,101474.84
2022-11-02T22:59:03.227Z,101477.56
2022-11-02T23:01:32.810Z,101470.25
2022-11-02T23:04:01.160Z,101467.78
2022-11-02T23:06:29.314Z,101470.25
2022-11-02T23:08:58.546Z,101458.84
2022-11-02T23:11:29.139Z,101455.91
2022-11-02T23:14:00.177Z,101464.03
2022-11-02T23:16:29.804Z,101457.78
2022-11-02T23:19:20.427Z,101452.63
2022-11-02T23:22:10.573Z,101444.50
2022-11-02T23:24:55.839Z,101445.56
2022-11-02T23:27:23.796Z,101439.31
2022-11-02T23:30:15.736Z,101447.44
2022-11-02T23:32:43.476Z,101444.16
2022-11-02T23:35:29.171Z,101443.09
2022-11-02T23:38:05.288Z,101442.25
2022-11-02T23:40:33.695Z,101431.69
2022-11-02T23:43:01.548Z,101442.25
2022-11-02T23:45:30.634Z,101442.25
2022-11-02T23:48:00.096Z,101430.63
2022-11-02T23:50:49.294Z,101436.84
2022-11-02T23:53:45.462Z,101430.03
2022-11-02T23:56:33.732Z,101424.63
2022-11-02T23:59:07.436Z,101422.97
